Strona główna
METAR-TAF:

METAR-TAF

Lotnisko :

Walencja, Hiszpania

Szerokość geograficzna: 39-37-26N, Długość geograficzna: 0-28-26W, wysokość: 127 m

Aktualna obserwacja pogody

Raport powstał 41 minut temu, godzina 18:00 UTC
Wiatr 10 kt od wschód, zmienny między północno-północny wschód i południowy wschód
Temperatura 24°C
Wilgotność 69%
Ciśnienie 1010 hPa
Widzialność 10 km lub więcej
Mało chmury na wysokości 2100 ft

METAR: LEBT 251800Z AUTO 09010KT 020V140 9999 FEW021 24/18 Q1010

czas: 20:41 (18:41 UTC)


TAF: brakujący

Obserwacja i prognoza pogody dla ponad 4000 lotnisk (raport METAR i TAF).

Dostępne stacje oznaczono żółtymi i czerwonymi punktami na mapie.

Najedź kursorem aby zobaczyć nazwę stacji.

Kliknij aby zobaczyć obserwacje i prognozy pogody.

Aby zmienić mapę: kliknij na zielony przycisk z czarnym krzyżykiem, aby powiększyć; na zielony przycisk z myślnikiem, aby pomniejszyć; na zielone strzałki, aby przejść do map sąsiednich.


METAR-TAF: